Time;durP1;ratioP1;P1;durP2;ratioP2;P2;SDS_P1;SDS_P2;PMS_P1;PMS_P2;Temp;Humidity;BMP_temperature;BMP_pressure;BME280_temperature;BME280_humidity;BME280_pressure;Samples;Min_cycle;Max_cycle;Signal;HPM_P1;HPM_P2
2022/09/14 00:00:00;;;;;;;6.10;2.58;;;12.30;99.90;;;;;;5095837;28;20051;-58
2022/09/14 00:02:26;;;;;;;7.15;2.70;;;12.40;99.90;;;;;;5095412;27;20052;-57
2022/09/14 00:04:53;;;;;;;7.40;2.55;;;12.50;99.90;;;;;;5095278;27;20039;-57
2022/09/14 00:07:19;;;;;;;7.25;3.30;;;14.50;99.90;;;;;;5095705;27;20054;-58
2022/09/14 00:09:44;;;;;;;7.75;2.70;;;12.50;99.90;;;;;;5095196;27;20036;-57
2022/09/14 00:12:10;;;;;;;9.32;3.10;;;12.60;99.90;;;;;;5095219;27;20035;-57
2022/09/14 00:14:37;;;;;;;9.35;2.80;;;12.50;99.90;;;;;;5095608;27;20046;-57
2022/09/14 00:17:03;;;;;;;6.25;2.60;;;12.70;99.90;;;;;;5095141;27;20424;-57
2022/09/14 00:19:29;;;;;;;7.88;2.58;;;12.60;99.90;;;;;;5095750;27;20039;-57
2022/09/14 00:21:57;;;;;;;5.65;2.70;;;12.70;99.90;;;;;;5094833;28;20077;-57
2022/09/14 00:24:23;;;;;;;5.95;2.90;;;12.60;99.90;;;;;;5095240;27;20035;-57
2022/09/14 00:26:50;;;;;;;9.45;3.05;;;13.50;99.90;;;;;;5095513;27;20126;-57
2022/09/14 00:29:16;;;;;;;11.57;3.25;;;12.20;99.90;;;;;;5095656;27;20047;-57
2022/09/14 00:31:42;;;;;;;7.38;3.40;;;12.70;99.90;;;;;;5095291;27;20369;-57
2022/09/14 00:34:11;;;;;;;10.80;2.95;;;12.40;99.90;;;;;;5093222;27;20070;-57
2022/09/14 00:36:43;;;;;;;7.72;2.53;;;12.60;99.90;;;;;;5095830;28;20043;-57
2022/09/14 00:39:10;;;;;;;11.45;3.30;;;12.50;99.90;;;;;;5094407;28;20344;-58
2022/09/14 00:41:39;;;;;;;5.60;2.95;;;12.60;99.90;;;;;;5094349;27;20043;-58
2022/09/14 00:44:10;;;;;;;5.75;2.83;;;12.60;99.90;;;;;;5094673;27;20051;-58
2022/09/14 00:46:37;;;;;;;8.45;3.00;;;12.50;99.90;;;;;;5093943;27;20035;-58
2022/09/14 00:49:06;;;;;;;6.35;3.10;;;12.30;99.90;;;;;;5093148;27;20107;-58
2022/09/14 00:51:33;;;;;;;8.27;2.75;;;12.30;99.90;;;;;;5094840;27;20047;-58
2022/09/14 00:54:03;;;;;;;5.63;2.70;;;12.40;99.90;;;;;;5093280;27;20527;-58
2022/09/14 00:56:30;;;;;;;8.02;3.03;;;12.30;99.90;;;;;;5093299;28;20373;-57
2022/09/14 00:58:58;;;;;;;6.78;3.10;;;12.40;99.90;;;;;;5094606;27;20035;-57
2022/09/14 01:01:25;;;;;;;7.72;3.10;;;13.70;99.90;;;;;;5094181;27;20407;-57
2022/09/14 01:03:51;;;;;;;7.18;3.20;;;12.30;99.90;;;;;;5092835;27;20126;-57
2022/09/14 01:06:35;;;;;;;8.90;3.10;;;14.40;99.90;;;;;;5095063;27;20065;-57
2022/09/14 01:09:20;;;;;;;8.82;3.22;;;12.20;99.90;;;;;;5094452;27;20548;-57
2022/09/14 01:12:10;;;;;;;6.45;2.78;;;12.10;99.90;;;;;;5093347;27;20035;-57
2022/09/14 01:14:51;;;;;;;7.95;3.20;;;12.10;99.90;;;;;;5093216;27;20402;-57
2022/09/14 01:17:31;;;;;;;7.43;3.08;;;12.30;99.90;;;;;;5093259;28;20051;-57
2022/09/14 01:20:21;;;;;;;10.13;3.50;;;12.30;99.90;;;;;;5093049;27;20450;-57
2022/09/14 01:23:06;;;;;;;9.43;4.07;;;12.10;99.90;;;;;;5092536;28;20036;-57
2022/09/14 01:26:04;;;;;;;6.88;3.22;;;12.10;99.90;;;;;;5094137;28;20125;-58
2022/09/14 01:29:00;;;;;;;10.43;3.28;;;12.40;99.90;;;;;;5092857;27;20048;-58
2022/09/14 01:31:34;;;;;;;13.23;3.90;;;12.10;99.90;;;;;;5094381;27;20471;-58
2022/09/14 01:34:31;;;;;;;10.77;3.28;;;12.30;99.90;;;;;;5093926;28;20036;-57
2022/09/14 01:37:22;;;;;;;10.55;4.18;;;12.10;99.90;;;;;;5094396;27;21006;-58
2022/09/14 01:39:53;;;;;;;7.57;3.30;;;12.20;99.90;;;;;;5087139;28;20112;-57
2022/09/14 01:42:24;;;;;;;8.27;3.92;;;12.30;99.90;;;;;;5093469;27;20385;-58
2022/09/14 01:44:55;;;;;;;8.85;3.40;;;12.60;99.90;;;;;;5093010;27;20032;-58
2022/09/14 01:47:37;;;;;;;8.65;3.40;;;12.20;99.90;;;;;;5093268;28;20051;-57
2022/09/14 01:50:12;;;;;;;7.05;4.05;;;12.50;99.90;;;;;;5093899;28;20404;-57
2022/09/14 01:53:22;;;;;;;9.10;3.63;;;12.50;99.90;;;;;;5092877;27;20055;-58
2022/09/14 01:55:55;;;;;;;11.27;3.70;;;12.50;99.90;;;;;;5029166;28;20056;-57
2022/09/14 01:59:02;;;;;;;8.23;4.00;;;13.90;99.90;;;;;;5082911;28;20052;-57
2022/09/14 02:01:35;;;;;;;11.65;4.35;;;10.80;99.90;;;;;;5071880;27;20096;-57
2022/09/14 02:04:06;;;;;;;10.68;4.53;;;12.70;99.90;;;;;;5092660;28;20191;-58
2022/09/14 02:06:41;;;;;;;9.38;3.92;;;14.40;99.90;;;;;;5092668;27;20048;-57
2022/09/14 02:09:10;;;;;;;9.95;3.70;;;12.60;99.90;;;;;;5093944;28;20607;-57
2022/09/14 02:11:36;;;;;;;11.20;4.00;;;12.70;99.90;;;;;;5092607;27;20463;-58
2022/09/14 02:14:03;;;;;;;9.55;3.97;;;14.40;99.90;;;;;;5092244;28;20590;-58
2022/09/14 02:16:29;;;;;;;8.98;3.80;;;13.30;99.90;;;;;;5092234;28;20067;-57
2022/09/14 02:18:55;;;;;;;6.03;3.38;;;12.80;99.90;;;;;;5092884;28;20040;-58
2022/09/14 02:21:25;;;;;;;8.60;3.97;;;12.80;99.90;;;;;;5092585;28;20054;-57
2022/09/14 02:23:52;;;;;;;7.15;3.97;;;12.70;99.90;;;;;;5091664;27;20776;-57
2022/09/14 02:26:19;;;;;;;8.32;3.88;;;12.90;99.90;;;;;;5090576;28;20412;-57
2022/09/14 02:28:45;;;;;;;8.57;3.38;;;13.20;99.90;;;;;;5090627;28;20043;-58
2022/09/14 02:31:53;;;;;;;7.25;3.70;;;12.90;99.90;;;;;;5093929;28;20043;-58
2022/09/14 02:34:40;;;;;;;7.35;4.05;;;12.90;99.90;;;;;;5064738;28;20052;-57
2022/09/14 02:37:40;;;;;;;9.48;4.10;;;12.90;99.90;;;;;;5093116;28;20789;-58
2022/09/14 02:40:16;;;;;;;8.60;4.35;;;12.80;99.90;;;;;;5092991;28;20515;-58
2022/09/14 02:43:20;;;;;;;11.93;4.70;;;12.90;99.90;;;;;;5092124;28;20517;-57
2022/09/14 02:45:55;;;;;;;9.90;4.05;;;13.10;99.90;;;;;;5069580;28;20205;-57
2022/09/14 02:48:42;;;;;;;7.22;3.90;;;12.90;99.90;;;;;;5092123;28;20131;-57
2022/09/14 02:51:16;;;;;;;9.85;4.45;;;13.00;99.90;;;;;;5091800;28;20055;-58
2022/09/14 02:53:54;;;;;;;10.63;4.65;;;13.10;99.90;;;;;;5091323;28;20079;-57
2022/09/14 02:56:21;;;;;;;7.78;4.25;;;13.20;99.90;;;;;;5092219;28;20047;-58
2022/09/14 02:58:47;;;;;;;6.93;4.18;;;13.10;99.90;;;;;;5092264;28;20046;-57
2022/09/14 03:01:17;;;;;;;8.23;4.30;;;13.00;99.90;;;;;;5092085;28;20404;-58
2022/09/14 03:03:43;;;;;;;8.25;4.63;;;13.00;99.90;;;;;;5090525;28;20662;-57
2022/09/14 03:06:09;;;;;;;9.15;4.00;;;13.20;99.90;;;;;;5092738;28;21104;-56
2022/09/14 03:08:35;;;;;;;7.75;4.20;;;13.00;99.90;;;;;;5092664;28;20622;-58
2022/09/14 03:11:01;;;;;;;7.28;3.50;;;13.00;99.90;;;;;;5092092;28;20043;-57
2022/09/14 03:13:27;;;;;;;8.63;4.70;;;13.50;99.90;;;;;;5091403;28;20138;-57
2022/09/14 03:15:53;;;;;;;10.02;3.85;;;15.20;99.90;;;;;;5093673;28;20057;-57
2022/09/14 03:18:19;;;;;;;10.00;4.57;;;13.30;99.90;;;;;;5091464;28;20129;-57
2022/09/14 03:20:45;;;;;;;7.20;3.92;;;14.80;99.90;;;;;;5091902;28;20032;-57
2022/09/14 03:23:12;;;;;;;12.27;4.28;;;13.00;99.90;;;;;;5092660;28;20036;-57
2022/09/14 03:25:40;;;;;;;10.25;4.40;;;13.10;99.90;;;;;;5092590;28;20087;-57
2022/09/14 03:28:06;;;;;;;11.57;4.80;;;15.10;99.90;;;;;;5092515;27;20092;-58
2022/09/14 03:30:33;;;;;;;8.57;4.15;;;13.00;99.90;;;;;;5092125;28;20043;-58
2022/09/14 03:32:59;;;;;;;9.10;4.80;;;14.10;99.90;;;;;;5091013;28;20130;-58
2022/09/14 03:35:26;;;;;;;9.73;4.40;;;13.10;99.90;;;;;;5091577;28;20038;-58
2022/09/14 03:37:52;;;;;;;8.82;4.28;;;13.10;99.90;;;;;;5092921;28;20066;-58
2022/09/14 03:40:17;;;;;;;7.57;4.55;;;13.20;99.90;;;;;;5095028;28;20074;-57
2022/09/14 03:42:48;;;;;;;7.15;4.00;;;13.10;99.90;;;;;;5094825;28;20040;-57
2022/09/14 03:45:15;;;;;;;16.50;4.38;;;13.40;99.90;;;;;;5094646;28;20573;-58
2022/09/14 03:47:42;;;;;;;7.63;4.45;;;13.20;99.90;;;;;;5095858;27;20416;-57
2022/09/14 03:50:09;;;;;;;11.27;4.22;;;13.10;99.90;;;;;;5095518;28;20046;-58
2022/09/14 03:52:36;;;;;;;8.85;4.15;;;13.30;99.90;;;;;;5096012;27;20044;-57
2022/09/14 03:55:03;;;;;;;9.57;4.57;;;13.30;99.90;;;;;;5094719;27;20075;-58
2022/09/14 03:57:29;;;;;;;8.65;4.63;;;13.10;99.90;;;;;;5094800;28;20469;-58
2022/09/14 03:59:55;;;;;;;10.98;4.32;;;13.20;99.90;;;;;;5095779;27;20051;-58
2022/09/14 04:02:20;;;;;;;9.90;4.05;;;13.30;99.90;;;;;;5094660;27;20096;-57
2022/09/14 04:04:47;;;;;;;9.25;4.78;;;13.20;99.90;;;;;;5095019;27;20070;-57
2022/09/14 04:07:14;;;;;;;6.70;3.95;;;13.50;99.90;;;;;;5094772;27;20051;-57
2022/09/14 04:09:40;;;;;;;14.73;4.90;;;13.30;99.90;;;;;;5096499;27;20614;-57
2022/09/14 04:12:06;;;;;;;9.20;4.70;;;13.10;99.90;;;;;;5095845;27;20031;-57
2022/09/14 04:14:32;;;;;;;9.30;4.43;;;13.30;99.90;;;;;;5094672;27;20062;-57
2022/09/14 04:16:58;;;;;;;10.27;4.53;;;13.20;99.90;;;;;;5095456;27;20043;-57
2022/09/14 04:19:24;;;;;;;7.68;4.35;;;13.30;99.90;;;;;;5094294;28;20048;-55
2022/09/14 04:21:49;;;;;;;8.70;4.10;;;13.30;99.90;;;;;;5095622;27;20044;-57
2022/09/14 04:24:15;;;;;;;8.57;4.35;;;13.30;99.90;;;;;;5094594;27;20031;-57
2022/09/14 04:26:42;;;;;;;8.80;4.97;;;13.60;99.90;;;;;;5094580;27;20036;-57
2022/09/14 04:29:09;;;;;;;10.00;4.57;;;13.10;99.90;;;;;;5094248;27;20047;-56
2022/09/14 04:31:35;;;;;;;10.45;4.75;;;13.20;99.90;;;;;;5094119;27;20047;-56
2022/09/14 04:34:01;;;;;;;9.63;4.22;;;13.30;99.90;;;;;;5094564;27;20451;-56
2022/09/14 04:36:29;;;;;;;9.00;4.60;;;13.30;99.90;;;;;;5094666;27;20043;-57
2022/09/14 04:38:58;;;;;;;6.38;4.25;;;13.70;99.90;;;;;;5096190;27;20104;-57
2022/09/14 04:41:24;;;;;;;8.68;4.55;;;12.60;99.90;;;;;;5094771;28;20291;-57
2022/09/14 04:43:51;;;;;;;9.43;4.50;;;14.00;99.90;;;;;;5096260;27;20130;-57
2022/09/14 04:46:20;;;;;;;9.45;4.53;;;13.30;99.90;;;;;;5094903;28;20040;-57
2022/09/14 04:48:46;;;;;;;8.02;4.45;;;13.50;99.90;;;;;;5096285;27;20432;-57
2022/09/14 04:51:17;;;;;;;7.55;4.40;;;13.30;99.90;;;;;;5092998;27;20061;-55
2022/09/14 04:53:46;;;;;;;10.65;4.95;;;13.20;99.90;;;;;;5093571;27;20217;-56
2022/09/14 04:56:13;;;;;;;9.52;4.60;;;13.10;99.90;;;;;;5094519;27;20048;-55
2022/09/14 04:58:43;;;;;;;10.60;4.72;;;13.20;99.90;;;;;;5094793;27;20081;-54
2022/09/14 05:01:17;;;;;;;10.18;4.35;;;15.70;99.90;;;;;;5095330;28;20044;-56
2022/09/14 05:03:43;;;;;;;10.55;4.57;;;13.30;99.90;;;;;;5094746;27;20423;-56
2022/09/14 05:06:14;;;;;;;10.20;4.25;;;15.10;99.90;;;;;;5094528;27;20810;-55
2022/09/14 05:08:41;;;;;;;16.40;4.88;;;13.50;99.90;;;;;;5095056;27;20152;-56
2022/09/14 05:11:10;;;;;;;11.85;4.70;;;13.60;99.90;;;;;;5092842;27;20356;-56
2022/09/14 05:13:36;;;;;;;10.32;4.10;;;13.30;99.90;;;;;;5093321;27;20062;-55
2022/09/14 05:16:09;;;;;;;7.47;4.20;;;13.30;99.90;;;;;;5093444;27;20035;-56
2022/09/14 05:18:35;;;;;;;6.72;4.30;;;13.30;99.90;;;;;;5093174;27;20039;-55
2022/09/14 05:21:06;;;;;;;9.98;5.03;;;13.20;99.90;;;;;;5094333;28;20058;-55
2022/09/14 05:23:32;;;;;;;14.05;4.65;;;13.40;99.90;;;;;;5094419;28;20040;-55
2022/09/14 05:25:59;;;;;;;12.23;4.35;;;13.50;99.90;;;;;;5091859;28;20529;-56
2022/09/14 05:28:25;;;;;;;10.32;4.78;;;13.40;99.90;;;;;;5093587;27;20040;-55
2022/09/14 05:30:52;;;;;;;8.32;4.20;;;13.40;99.90;;;;;;5092536;27;20043;-55
2022/09/14 05:33:18;;;;;;;10.88;4.20;;;13.10;99.90;;;;;;5093400;28;20173;-56
2022/09/14 05:35:44;;;;;;;12.50;4.05;;;13.40;99.90;;;;;;5091907;27;20043;-56
2022/09/14 05:38:10;;;;;;;10.00;4.82;;;13.20;99.90;;;;;;5091706;28;20043;-55
2022/09/14 05:40:36;;;;;;;7.90;4.93;;;13.50;99.90;;;;;;5093035;27;20050;-55
2022/09/14 05:43:02;;;;;;;8.55;4.53;;;13.50;99.90;;;;;;5093797;27;20515;-56
2022/09/14 05:45:27;;;;;;;19.00;5.70;;;13.30;99.90;;;;;;5093376;28;20071;-56
2022/09/14 05:47:53;;;;;;;11.40;4.53;;;13.40;99.90;;;;;;5094254;27;20039;-56
2022/09/14 05:50:19;;;;;;;10.48;4.47;;;13.40;99.90;;;;;;5077034;27;20130;-56
2022/09/14 05:52:45;;;;;;;12.13;4.70;;;13.50;99.90;;;;;;5094036;27;20181;-56
2022/09/14 05:55:10;;;;;;;11.57;4.70;;;13.40;99.90;;;;;;5093736;28;20047;-56
2022/09/14 05:57:36;;;;;;;10.18;4.60;;;13.40;99.90;;;;;;5093159;28;20024;-56
2022/09/14 06:00:03;;;;;;;9.10;4.63;;;13.50;99.90;;;;;;5094110;28;20048;-56
2022/09/14 06:02:29;;;;;;;8.35;4.85;;;13.50;99.90;;;;;;5093618;28;20048;-57
2022/09/14 06:04:54;;;;;;;8.27;4.60;;;13.40;99.90;;;;;;5092932;27;20040;-56
2022/09/14 06:07:20;;;;;;;11.93;4.82;;;13.40;99.90;;;;;;5093252;28;20036;-57
2022/09/14 06:09:46;;;;;;;9.45;4.53;;;13.50;99.90;;;;;;5094299;27;20488;-57
2022/09/14 06:12:13;;;;;;;8.27;4.10;;;13.70;99.90;;;;;;5093160;28;20040;-57
2022/09/14 06:14:39;;;;;;;7.97;4.50;;;13.60;99.90;;;;;;5092931;27;20055;-57
2022/09/14 06:17:05;;;;;;;8.07;4.82;;;13.60;99.90;;;;;;5092727;28;20074;-57
2022/09/14 06:19:31;;;;;;;8.40;4.20;;;13.80;99.90;;;;;;5093449;28;20088;-57
2022/09/14 06:21:56;;;;;;;7.95;4.72;;;13.80;99.90;;;;;;5092593;28;20043;-56
2022/09/14 06:24:22;;;;;;;7.60;4.13;;;13.90;99.90;;;;;;5091767;28;20051;-57
2022/09/14 06:26:48;;;;;;;12.05;4.13;;;15.10;99.90;;;;;;5092489;28;20039;-56
2022/09/14 06:29:14;;;;;;;9.70;4.45;;;14.00;99.90;;;;;;5092314;28;20035;-57
2022/09/14 06:31:39;;;;;;;7.22;4.13;;;14.10;99.90;;;;;;5092506;28;20161;-56
2022/09/14 06:34:05;;;;;;;9.25;4.20;;;16.10;99.90;;;;;;5091004;28;20047;-58
2022/09/14 06:36:31;;;;;;;9.07;4.30;;;14.10;99.90;;;;;;5089498;28;20046;-57
2022/09/14 06:38:58;;;;;;;9.93;4.20;;;14.10;99.90;;;;;;5093206;28;20043;-57
2022/09/14 06:41:29;;;;;;;7.07;4.18;;;14.20;99.90;;;;;;5092966;28;20717;-57
2022/09/14 06:43:56;;;;;;;7.65;3.33;;;14.40;99.90;;;;;;5091408;28;20100;-57
2022/09/14 06:46:28;;;;;;;11.52;4.22;;;14.60;99.90;;;;;;5092967;28;20056;-56
2022/09/14 06:49:00;;;;;;;6.57;3.20;;;14.70;99.90;;;;;;5092893;28;20270;-57
2022/09/14 06:51:41;;;;;;;8.10;3.20;;;14.50;99.90;;;;;;5093647;28;20056;-56
2022/09/14 06:54:09;;;;;;;7.05;2.75;;;14.90;99.90;;;;;;5092241;28;20131;-57
2022/09/14 06:56:37;;;;;;;9.60;2.83;;;15.00;99.90;;;;;;5092303;28;20484;-57
2022/09/14 06:59:04;;;;;;;8.20;2.80;;;14.90;99.90;;;;;;5092326;28;20036;-58
2022/09/14 07:01:29;;;;;;;7.82;2.80;;;15.00;99.90;;;;;;5092793;28;20028;-56
2022/09/14 07:03:57;;;;;;;7.88;3.05;;;15.30;99.90;;;;;;5092719;28;20070;-57
2022/09/14 07:06:25;;;;;;;8.00;2.80;;;15.30;99.90;;;;;;5090775;28;20305;-56
2022/09/14 07:08:52;;;;;;;10.88;2.80;;;15.40;99.90;;;;;;5093370;28;20055;-56
2022/09/14 07:11:20;;;;;;;8.70;2.65;;;15.40;99.90;;;;;;5092767;28;20071;-56
2022/09/14 07:13:47;;;;;;;7.03;2.42;;;15.40;99.90;;;;;;5094071;28;20070;-57
2022/09/14 07:16:13;;;;;;;10.30;2.00;;;15.70;99.90;;;;;;5095814;27;20380;-56
2022/09/14 07:18:40;;;;;;;6.03;1.90;;;15.90;99.90;;;;;;5096943;27;20367;-57
2022/09/14 07:21:15;;;;;;;6.45;2.03;;;15.80;99.90;;;;;;5095193;27;20395;-56
2022/09/14 07:23:42;;;;;;;6.32;1.88;;;15.90;99.90;;;;;;5096233;27;20492;-57
2022/09/14 07:26:15;;;;;;;6.75;1.95;;;15.90;99.90;;;;;;5096692;27;20050;-57
2022/09/14 07:28:42;;;;;;;6.82;2.40;;;16.10;99.90;;;;;;5096506;27;20889;-57
2022/09/14 07:31:18;;;;;;;8.80;2.17;;;16.20;99.90;;;;;;5096086;27;20148;-57
2022/09/14 07:33:44;;;;;;;6.15;1.80;;;16.00;99.90;;;;;;5095792;27;20039;-57
2022/09/14 07:36:11;;;;;;;8.60;1.80;;;16.30;99.90;;;;;;5096504;27;20539;-56
2022/09/14 07:38:37;;;;;;;5.60;1.40;;;16.20;99.90;;;;;;5095678;27;20058;-57
2022/09/14 07:41:03;;;;;;;6.47;1.85;;;16.20;99.90;;;;;;5096775;27;20307;-57
2022/09/14 07:43:29;;;;;;;7.63;1.50;;;16.30;99.90;;;;;;5095559;27;20040;-57
2022/09/14 07:45:55;;;;;;;8.40;1.85;;;16.50;99.90;;;;;;5094920;27;20047;-56
2022/09/14 07:48:22;;;;;;;7.13;1.67;;;16.40;99.90;;;;;;5095158;27;20043;-56
2022/09/14 07:50:57;;;;;;;8.82;2.17;;;16.60;99.90;;;;;;5096468;27;20043;-57
2022/09/14 07:53:23;;;;;;;5.80;1.58;;;16.60;99.90;;;;;;5095209;27;20056;-57
2022/09/14 07:55:49;;;;;;;4.72;1.60;;;17.00;99.90;;;;;;5096365;27;20059;-56
2022/09/14 07:58:14;;;;;;;4.60;1.42;;;16.90;99.90;;;;;;5095411;27;20043;-57
2022/09/14 08:00:40;;;;;;;5.53;1.55;;;16.90;99.90;;;;;;5094537;27;20036;-56
2022/09/14 08:03:06;;;;;;;8.93;1.90;;;16.90;99.90;;;;;;5096133;27;20519;-57
2022/09/14 08:05:32;;;;;;;6.65;1.50;;;17.00;99.90;;;;;;5095272;27;20047;-56
2022/09/14 08:07:57;;;;;;;8.48;1.40;;;16.90;99.90;;;;;;5094385;27;20050;-57
2022/09/14 08:10:25;;;;;;;6.20;1.33;;;17.20;99.90;;;;;;5096695;27;20126;-56
2022/09/14 08:12:55;;;;;;;10.45;1.90;;;17.10;99.90;;;;;;5095936;27;20052;-56
2022/09/14 08:15:22;;;;;;;7.47;1.30;;;17.10;99.90;;;;;;5094892;27;20084;-56
2022/09/14 08:17:48;;;;;;;5.93;1.33;;;17.20;99.90;;;;;;5097731;27;20195;-57
2022/09/14 08:20:15;;;;;;;10.63;1.77;;;17.10;99.90;;;;;;5096139;27;20084;-56
2022/09/14 08:22:43;;;;;;;6.07;1.52;;;17.10;99.90;;;;;;5095468;27;20054;-56
2022/09/14 08:25:09;;;;;;;4.72;1.08;;;17.30;99.90;;;;;;5094921;27;20630;-56
2022/09/14 08:27:35;;;;;;;9.85;1.40;;;17.20;99.90;;;;;;5095540;27;20038;-56
2022/09/14 08:30:02;;;;;;;8.43;1.13;;;17.20;99.90;;;;;;5096338;27;20040;-57
2022/09/14 08:32:27;;;;;;;10.55;1.20;;;17.30;99.90;;;;;;5095507;28;20036;-56
2022/09/14 08:34:53;;;;;;;6.18;0.93;;;17.40;99.90;;;;;;5095677;27;20217;-57
2022/09/14 08:37:19;;;;;;;5.53;1.20;;;17.50;99.90;;;;;;5095593;28;20287;-57
2022/09/14 08:39:45;;;;;;;4.55;0.95;;;17.70;99.90;;;;;;5097194;27;20040;-56
2022/09/14 08:42:16;;;;;;;6.63;1.30;;;17.60;99.90;;;;;;5094297;27;20060;-57
2022/09/14 08:44:47;;;;;;;7.50;1.13;;;17.90;99.90;;;;;;5095330;28;20492;-57
2022/09/14 08:47:29;;;;;;;8.30;1.10;;;17.90;99.90;;;;;;5094770;27;20147;-56
2022/09/14 08:50:16;;;;;;;8.02;1.63;;;17.90;99.90;;;;;;5093153;28;20509;-56
2022/09/14 08:52:47;;;;;;;6.82;1.38;;;18.20;99.90;;;;;;5095595;27;20059;-59
2022/09/14 08:55:15;;;;;;;8.07;1.10;;;18.30;99.90;;;;;;5094790;27;20047;-57
2022/09/14 08:58:06;;;;;;;9.57;1.50;;;18.40;99.90;;;;;;5095351;27;20039;-57
2022/09/14 09:00:50;;;;;;;9.48;1.20;;;17.90;99.90;;;;;;5095428;27;20440;-56
2022/09/14 09:03:43;;;;;;;8.52;1.42;;;18.50;99.90;;;;;;5093788;27;20507;-57
2022/09/14 09:06:16;;;;;;;10.05;2.88;;;18.60;99.90;;;;;;5093563;27;20040;-56
2022/09/14 09:09:09;;;;;;;6.50;1.25;;;18.60;99.90;;;;;;5095380;27;20040;-56
2022/09/14 09:11:45;;;;;;;10.35;1.10;;;18.10;99.90;;;;;;5094352;28;20523;-56
2022/09/14 09:14:32;;;;;;;6.35;0.82;;;18.40;99.90;;;;;;5093985;27;20122;-56
2022/09/14 09:17:02;;;;;;;5.72;1.00;;;18.20;99.90;;;;;;5093235;27;20360;-57
2022/09/14 09:19:33;;;;;;;10.15;1.00;;;18.20;99.90;;;;;;5093503;28;20534;-56
2022/09/14 09:22:02;;;;;;;11.03;1.07;;;18.40;99.90;;;;;;5094081;27;20058;-56
2022/09/14 09:24:46;;;;;;;6.60;0.90;;;18.20;99.90;;;;;;5091578;27;20705;-57
2022/09/14 09:27:14;;;;;;;4.47;1.00;;;18.70;99.90;;;;;;5093337;27;20325;-56
2022/09/14 09:29:40;;;;;;;9.55;1.45;;;18.90;99.90;;;;;;5091373;27;20054;-56
2022/09/14 09:32:11;;;;;;;4.38;0.88;;;19.90;99.90;;;;;;5093682;27;20446;-56
2022/09/14 09:34:37;;;;;;;12.40;1.67;;;18.90;99.90;;;;;;5092516;27;20519;-56
2022/09/14 09:37:03;;;;;;;12.75;1.30;;;19.00;99.90;;;;;;5093335;28;20035;-56
2022/09/14 09:39:30;;;;;;;8.88;0.90;;;19.10;99.90;;;;;;5095430;27;20881;-56
2022/09/14 09:41:56;;;;;;;5.90;0.80;;;19.10;99.90;;;;;;5094246;27;20044;-56
2022/09/14 09:44:22;;;;;;;6.13;1.17;;;19.40;99.90;;;;;;5093518;27;20633;-56
2022/09/14 09:46:52;;;;;;;9.50;1.35;;;19.40;99.90;;;;;;5093561;27;20146;-56
2022/09/14 09:49:27;;;;;;;7.05;1.00;;;19.40;99.90;;;;;;5093264;27;20138;-57
2022/09/14 09:51:54;;;;;;;12.38;1.60;;;19.60;99.90;;;;;;5093545;28;20131;-57
2022/09/14 09:54:27;;;;;;;7.10;1.45;;;19.50;99.90;;;;;;5093373;28;20044;-56
2022/09/14 09:57:02;;;;;;;5.53;1.15;;;19.50;99.90;;;;;;5092977;28;20052;-56
2022/09/14 09:59:39;;;;;;;6.85;1.00;;;19.70;99.90;;;;;;5092154;27;20039;-56
2022/09/14 10:02:30;;;;;;;8.25;0.80;;;19.60;99.90;;;;;;5093563;28;20052;-56
2022/09/14 10:04:56;;;;;;;4.72;0.98;;;17.60;99.90;;;;;;5094113;28;20040;-57
2022/09/14 10:07:23;;;;;;;8.13;1.15;;;19.70;99.90;;;;;;5092277;28;20101;-57
2022/09/14 10:10:03;;;;;;;6.65;1.40;;;19.80;99.90;;;;;;5091721;28;20035;-56
2022/09/14 10:12:29;;;;;;;9.50;1.77;;;19.80;99.90;;;;;;5092795;28;20032;-56
2022/09/14 10:15:15;;;;;;;7.35;1.10;;;19.80;99.90;;;;;;5092352;28;20044;-55
2022/09/14 10:18:12;;;;;;;6.75;1.08;;;20.00;99.90;;;;;;5093144;28;20046;-56
2022/09/14 10:20:57;;;;;;;6.07;0.85;;;20.10;99.90;;;;;;5092217;27;20054;-56
2022/09/14 10:23:26;;;;;;;7.75;1.23;;;19.90;99.90;;;;;;5093220;28;20578;-56
2022/09/14 10:26:11;;;;;;;8.40;0.95;;;19.90;99.90;;;;;;5093678;28;20036;-56
2022/09/14 10:28:47;;;;;;;4.45;0.85;;;19.60;99.90;;;;;;5092508;28;20206;-56
2022/09/14 10:31:23;;;;;;;7.03;1.42;;;19.60;99.90;;;;;;5092782;28;20038;-56
2022/09/14 10:33:52;;;;;;;4.80;0.70;;;19.70;99.90;;;;;;5092526;28;20054;-56
2022/09/14 10:36:28;;;;;;;7.97;1.15;;;19.70;99.90;;;;;;5092048;28;20048;-57
2022/09/14 10:39:13;;;;;;;11.48;1.17;;;19.80;99.90;;;;;;5093510;28;20107;-56
2022/09/14 10:41:51;;;;;;;7.57;0.93;;;20.00;99.90;;;;;;5093349;28;20081;-56
2022/09/14 10:44:52;;;;;;;3.33;0.70;;;19.90;99.90;;;;;;5092359;28;20044;-56
2022/09/14 10:47:39;;;;;;;8.88;1.02;;;19.90;99.90;;;;;;5092321;28;20069;-57
2022/09/14 10:50:23;;;;;;;5.30;0.90;;;19.70;99.90;;;;;;5094705;27;20043;-56
2022/09/14 10:53:13;;;;;;;7.30;0.90;;;21.90;99.90;;;;;;5097969;27;20079;-56
2022/09/14 10:56:17;;;;;;;6.00;1.55;;;19.70;99.90;;;;;;5096797;28;20040;-56
2022/09/14 10:58:54;;;;;;;5.45;1.80;;;19.70;99.90;;;;;;5097825;27;20051;-56
2022/09/14 11:01:43;;;;;;;8.57;1.23;;;19.70;99.90;;;;;;5095805;27;20065;-56
2022/09/14 11:04:40;;;;;;;9.63;0.98;;;19.90;99.90;;;;;;5097376;27;20040;-56
2022/09/14 11:07:34;;;;;;;5.22;1.17;;;20.10;99.90;;;;;;5096043;27;20036;-56
2022/09/14 11:10:24;;;;;;;7.97;1.38;;;20.10;99.90;;;;;;5097426;27;20155;-56
2022/09/14 11:13:02;;;;;;;6.43;0.90;;;20.20;99.90;;;;;;5097034;27;20055;-56
2022/09/14 11:15:59;;;;;;;6.35;1.10;;;20.30;99.90;;;;;;5097336;27;20036;-55
2022/09/14 11:18:47;;;;;;;4.88;0.85;;;20.60;99.90;;;;;;5079100;27;20054;-56
2022/09/14 11:21:25;;;;;;;7.82;1.13;;;20.50;99.90;;;;;;5095868;28;20044;-56
2022/09/14 11:24:18;;;;;;;6.32;1.00;;;20.50;99.90;;;;;;5096618;27;20097;-56
2022/09/14 11:27:07;;;;;;;8.18;1.00;;;20.40;99.90;;;;;;5096374;27;20096;-57
2022/09/14 11:29:51;;;;;;;4.60;0.90;;;20.50;99.90;;;;;;5095989;27;20043;-57
2022/09/14 11:32:31;;;;;;;3.78;1.05;;;20.80;99.90;;;;;;5094396;27;20043;-56
2022/09/14 11:35:02;;;;;;;8.85;1.35;;;21.00;99.90;;;;;;5095799;27;20048;-57
2022/09/14 11:37:41;;;;;;;5.70;1.02;;;20.90;99.90;;;;;;5096511;27;20051;-57
2022/09/14 11:40:42;;;;;;;9.05;1.05;;;21.30;99.90;;;;;;5097489;27;20122;-56
2022/09/14 11:43:32;;;;;;;5.50;1.02;;;21.40;99.90;;;;;;5092654;28;20071;-57
2022/09/14 11:46:08;;;;;;;5.18;1.45;;;21.20;99.90;;;;;;5095952;27;20035;-57
2022/09/14 11:49:18;;;;;;;5.63;1.30;;;21.50;99.90;;;;;;5096873;27;20097;-57
2022/09/14 11:52:03;;;;;;;7.28;1.00;;;21.50;99.90;;;;;;5096235;27;20111;-57
2022/09/14 11:54:30;;;;;;;8.60;1.08;;;21.20;99.90;;;;;;5096027;27;20563;-56
2022/09/14 11:57:02;;;;;;;6.07;1.10;;;21.40;99.90;;;;;;5095992;27;20043;-57
2022/09/14 11:59:40;;;;;;;6.00;1.30;;;20.20;99.90;;;;;;5095281;27;20172;-58
2022/09/14 12:02:24;;;;;;;4.78;1.10;;;21.30;99.90;;;;;;5096097;27;20061;-59
2022/09/14 12:05:05;;;;;;;7.72;1.50;;;21.20;99.90;;;;;;5095404;27;20048;-59
2022/09/14 12:07:46;;;;;;;5.95;0.95;;;21.50;99.90;;;;;;5095468;27;20122;-59
2022/09/14 12:10:17;;;;;;;4.80;0.80;;;21.50;99.90;;;;;;5097332;27;20408;-59
2022/09/14 12:13:03;;;;;;;9.90;1.58;;;21.50;99.90;;;;;;5096353;27;20461;-59
2022/09/14 12:15:29;;;;;;;6.50;1.10;;;21.30;99.90;;;;;;5088035;28;20055;-59
2022/09/14 12:18:06;;;;;;;6.95;1.05;;;21.40;99.90;;;;;;5095354;27;20039;-58
2022/09/14 12:20:51;;;;;;;7.18;1.05;;;21.60;99.90;;;;;;5094889;27;20040;-58
2022/09/14 12:23:36;;;;;;;10.32;1.40;;;21.40;99.90;;;;;;5090834;27;20063;-59
2022/09/14 12:26:13;;;;;;;7.78;1.70;;;21.10;99.90;;;;;;5095791;27;20145;-58
2022/09/14 12:28:47;;;;;;;6.72;1.15;;;20.80;99.90;;;;;;5095229;28;20036;-58
2022/09/14 12:31:46;;;;;;;7.97;1.20;;;20.80;99.90;;;;;;5096020;27;20054;-59
2022/09/14 12:34:18;;;;;;;6.65;1.13;;;20.60;99.90;;;;;;5095232;27;20031;-58
2022/09/14 12:36:44;;;;;;;;;;;20.70;99.90;;;;;;5096695;27;20042;-58
2022/09/14 12:39:19;;;;;;;7.97;1.10;;;20.50;99.90;;;;;;5095204;28;19928;-58
2022/09/14 12:41:47;;;;;;;6.10;0.93;;;20.40;99.90;;;;;;5097223;27;20074;-59
2022/09/14 12:44:35;;;;;;;4.85;1.25;;;20.20;99.90;;;;;;5094326;27;20135;-58
2022/09/14 12:47:23;;;;;;;7.22;1.10;;;20.40;99.90;;;;;;5094007;27;20051;-58
2022/09/14 12:49:50;;;;;;;4.90;0.93;;;20.40;99.90;;;;;;5094600;27;20052;-59
2022/09/14 12:52:44;;;;;;;8.00;1.10;;;20.30;99.90;;;;;;5094497;27;20138;-58
2022/09/14 12:55:30;;;;;;;5.93;0.90;;;20.10;99.90;;;;;;5054221;27;20051;-59
2022/09/14 12:58:11;;;;;;;10.65;1.70;;;20.20;99.90;;;;;;5094933;27;20612;-58
2022/09/14 13:01:05;;;;;;;10.35;1.25;;;20.20;99.90;;;;;;5094691;27;20092;-58
2022/09/14 13:03:50;;;;;;;6.63;1.40;;;20.10;99.90;;;;;;5093847;28;20448;-58
2022/09/14 13:06:18;;;;;;;8.77;1.00;;;20.30;99.90;;;;;;5093223;28;20054;-58
2022/09/14 13:08:47;;;;;;;6.20;1.45;;;20.30;99.90;;;;;;5094134;27;20063;-58
2022/09/14 13:11:28;;;;;;;8.00;1.10;;;20.10;99.90;;;;;;5095618;27;20723;-59
2022/09/14 13:13:55;;;;;;;4.00;0.90;;;20.10;99.90;;;;;;5093947;27;20505;-59